CheckWX is a tool to help pilots better visualize weather data.  It is not intended as a substitute for an official pre-flight weather briefing.

14:10:55 UTC

KLKV METAR
Lake County Airport
Lakeview, Oregon, USA
Current

18 mins ago

KLKV 241353Z AUTO 33005KT 10SM CLR 05/04 A3018 RMK AO2 SLP204 T00500039
Observed
Apr-24 @ 13:53 UTC
Wind
  • 330° at 5 KTS
Visibility
10 SM
Flight Rules
VFR
Cloud Levels
  • Clear skies
Temperature
C / 41°F
Dewpoint
C / 39°F
Humidity
93%
Altimeter
30.18" Hg
Pressure
1022.02 hPa
Previous

1 hour ago

KLKV 241253Z AUTO 33007KT 10SM CLR 03/02 A3016 RMK AO2 SLP205 T00280022
Observed
Apr-24 @ 12:53 UTC
Wind
  • 330° at 7 KTS
Visibility
10 SM
Flight Rules
VFR
Cloud Levels
  • Clear skies
Temperature
C / 37°F
Dewpoint
C / 36°F
Humidity
93%
Altimeter
30.16" Hg
Pressure
1021.32 hPa
Previous

2 hours ago

KLKV 241153Z AUTO 30007KT 10SM CLR 03/02 A3016 RMK AO2 SLP200 T00280022 10106 20028 56003
Observed
Apr-24 @ 11:53 UTC
Wind
  • 300° at 7 KTS
Visibility
10 SM
Flight Rules
VFR
Cloud Levels
  • Clear skies
Temperature
C / 37°F
Dewpoint
C / 36°F
Humidity
93%
Altimeter
30.16" Hg
Pressure
1021.32 hPa